createdAt,value
2023-02-11T00:03:13.497Z,87
2023-02-11T00:06:38.719Z,87
2023-02-11T00:10:03.928Z,86
2023-02-11T00:13:29.160Z,86
2023-02-11T00:16:54.359Z,87
2023-02-11T00:20:19.537Z,87
2023-02-11T00:23:44.717Z,86
2023-02-11T00:27:09.920Z,86
2023-02-11T00:30:35.246Z,86
2023-02-11T00:34:00.329Z,86
2023-02-11T00:37:25.516Z,87
2023-02-11T00:40:50.722Z,87
2023-02-11T00:44:15.919Z,87
2023-02-11T00:47:41.121Z,87
2023-02-11T00:51:06.308Z,87
2023-02-11T00:54:31.498Z,86
2023-02-11T00:57:56.691Z,87
2023-02-11T01:01:21.997Z,87
2023-02-11T01:04:47.192Z,87
2023-02-11T01:08:12.366Z,87
2023-02-11T01:11:37.562Z,87
2023-02-11T01:15:02.809Z,87
2023-02-11T01:18:28.022Z,86
2023-02-11T01:21:53.228Z,86
2023-02-11T01:25:18.417Z,86
2023-02-11T01:28:43.637Z,87
2023-02-11T01:32:08.871Z,88
2023-02-11T01:35:34.021Z,87
2023-02-11T01:38:59.255Z,87
2023-02-11T01:42:24.407Z,87
2023-02-11T01:45:50.010Z,87
2023-02-11T01:49:14.908Z,87
2023-02-11T01:52:40.060Z,86
2023-02-11T01:56:05.291Z,87
2023-02-11T01:59:30.478Z,87
2023-02-11T02:02:55.648Z,87
2023-02-11T02:06:20.853Z,87
2023-02-11T02:09:46.052Z,86
2023-02-11T02:13:11.281Z,87
2023-02-11T02:16:36.555Z,86
2023-02-11T02:20:01.655Z,87
2023-02-11T02:23:26.864Z,87
2023-02-11T02:26:52.064Z,87
2023-02-11T02:30:17.310Z,88
2023-02-11T02:33:42.511Z,88
2023-02-11T02:37:07.705Z,88
2023-02-11T02:40:32.912Z,88
2023-02-11T02:43:58.105Z,88
2023-02-11T02:47:23.324Z,88
2023-02-11T02:50:48.500Z,88
2023-02-11T02:54:13.734Z,88
2023-02-11T02:57:38.909Z,88
2023-02-11T03:01:04.186Z,88
2023-02-11T03:04:29.311Z,89
2023-02-11T03:07:54.491Z,89
2023-02-11T03:11:19.697Z,89
2023-02-11T03:14:44.941Z,88
2023-02-11T03:18:10.137Z,88
2023-02-11T03:21:35.382Z,88
2023-02-11T03:25:00.597Z,88
2023-02-11T03:28:25.845Z,88
2023-02-11T03:31:51.017Z,88
2023-02-11T03:35:16.170Z,88
2023-02-11T03:38:41.384Z,88
2023-02-11T03:42:06.542Z,88
2023-02-11T03:45:31.790Z,88
2023-02-11T03:48:56.948Z,88
2023-02-11T03:52:22.153Z,88
2023-02-11T03:55:47.413Z,88
2023-02-11T03:59:12.580Z,88
2023-02-11T04:02:37.794Z,88
2023-02-11T04:06:03.003Z,88
2023-02-11T04:09:28.169Z,89
2023-02-11T04:12:53.430Z,89
2023-02-11T04:16:18.644Z,89
2023-02-11T04:19:43.771Z,89
2023-02-11T04:23:08.955Z,89
2023-02-11T04:26:34.156Z,90
2023-02-11T04:29:59.372Z,90
2023-02-11T04:33:24.547Z,90
2023-02-11T04:36:49.754Z,90
2023-02-11T04:40:14.929Z,90
2023-02-11T04:43:40.138Z,90
2023-02-11T04:47:05.343Z,89
2023-02-11T04:50:30.536Z,89
2023-02-11T04:53:55.737Z,89
2023-02-11T04:57:20.983Z,89
2023-02-11T05:00:46.162Z,89
2023-02-11T05:04:11.474Z,89
2023-02-11T05:07:36.615Z,89
2023-02-11T05:11:01.828Z,89
2023-02-11T05:14:26.989Z,89
2023-02-11T05:17:52.211Z,89
2023-02-11T05:21:17.426Z,90
2023-02-11T05:24:42.597Z,89
2023-02-11T05:28:07.907Z,89
2023-02-11T05:31:33.024Z,90
2023-02-11T05:34:58.199Z,90
2023-02-11T05:38:23.408Z,90
2023-02-11T05:41:48.663Z,90
2023-02-11T05:45:13.867Z,90
2023-02-11T05:48:39.077Z,91
2023-02-11T05:52:04.293Z,91
2023-02-11T05:55:29.544Z,91
2023-02-11T05:58:54.791Z,91
2023-02-11T06:02:20.137Z,91
2023-02-11T06:05:45.236Z,91
2023-02-11T06:09:10.508Z,91
2023-02-11T06:12:35.801Z,91
2023-02-11T06:16:01.004Z,91
2023-02-11T06:19:26.179Z,91
2023-02-11T06:22:51.492Z,92
2023-02-11T06:26:16.699Z,91
2023-02-11T06:29:41.930Z,91
2023-02-11T06:33:07.100Z,91
2023-02-11T06:36:32.284Z,91
2023-02-11T06:39:57.533Z,91
2023-02-11T06:43:22.745Z,92
2023-02-11T06:46:48.043Z,92
2023-02-11T06:50:13.218Z,92
2023-02-11T06:53:38.379Z,92
2023-02-11T06:57:03.584Z,92
2023-02-11T07:00:28.754Z,92
2023-02-11T07:03:53.976Z,93
2023-02-11T07:07:19.164Z,92
2023-02-11T07:10:44.376Z,92
2023-02-11T07:14:09.598Z,92
2023-02-11T07:17:34.787Z,92
2023-02-11T07:20:59.991Z,92
2023-02-11T07:24:25.220Z,92
2023-02-11T07:27:50.419Z,92
2023-02-11T07:31:15.713Z,93
2023-02-11T07:34:40.873Z,92
2023-02-11T07:38:06.071Z,92
2023-02-11T07:41:31.257Z,92
2023-02-11T07:44:56.419Z,92
2023-02-11T07:48:21.632Z,91
2023-02-11T07:51:46.902Z,91
2023-02-11T07:55:12.132Z,91
2023-02-11T07:58:37.307Z,91
2023-02-11T08:02:02.624Z,91
2023-02-11T08:05:27.739Z,91
2023-02-11T08:08:52.966Z,90
2023-02-11T08:12:18.194Z,90
2023-02-11T08:15:43.364Z,90
2023-02-11T08:19:08.563Z,90
2023-02-11T08:22:33.802Z,90
2023-02-11T08:25:59.043Z,90
2023-02-11T08:29:24.278Z,90
2023-02-11T08:32:49.465Z,90
2023-02-11T08:36:14.646Z,90
2023-02-11T08:39:39.875Z,90
2023-02-11T08:43:07.934Z,90
2023-02-11T08:46:30.687Z,90
2023-02-11T08:49:55.969Z,91
2023-02-11T08:53:21.170Z,91
2023-02-11T08:56:46.357Z,91
2023-02-11T09:00:11.538Z,91
2023-02-11T09:03:36.791Z,91
2023-02-11T09:07:01.933Z,90
2023-02-11T09:10:27.163Z,90
2023-02-11T09:13:54.355Z,90
2023-02-11T09:17:17.567Z,91
2023-02-11T09:20:42.785Z,91
2023-02-11T09:24:07.986Z,91
2023-02-11T09:27:33.169Z,92
2023-02-11T09:30:58.466Z,92
2023-02-11T09:34:23.529Z,92
2023-02-11T09:37:48.837Z,92
2023-02-11T09:41:14.023Z,91
2023-02-11T09:44:39.216Z,91
2023-02-11T09:48:06.209Z,91
2023-02-11T09:51:29.620Z,92
2023-02-11T09:54:54.849Z,92
2023-02-11T09:58:20.012Z,91
2023-02-11T10:01:45.276Z,91
2023-02-11T10:05:10.427Z,91
2023-02-11T10:08:35.716Z,92
2023-02-11T10:12:01.059Z,92
2023-02-11T10:15:26.358Z,92
2023-02-11T10:18:51.563Z,92
2023-02-11T10:22:16.793Z,92
2023-02-11T10:25:44.333Z,91
2023-02-11T10:29:07.358Z,91
2023-02-11T10:32:32.611Z,91
2023-02-11T10:35:57.864Z,91
2023-02-11T10:39:23.107Z,90
2023-02-11T10:42:48.335Z,90
2023-02-11T10:46:13.633Z,90
2023-02-11T10:49:38.900Z,89
2023-02-11T10:53:04.694Z,89
2023-02-11T10:56:29.938Z,89
2023-02-11T10:59:55.171Z,89
2023-02-11T11:03:20.400Z,89
2023-02-11T11:06:45.619Z,89
2023-02-11T11:10:10.952Z,89
2023-02-11T11:13:36.142Z,89
2023-02-11T11:17:01.406Z,89
2023-02-11T11:20:26.799Z,89
2023-02-11T11:23:52.017Z,89
2023-02-11T11:27:17.291Z,88
2023-02-11T11:30:42.585Z,88
2023-02-11T11:34:07.755Z,88
2023-02-11T11:37:32.995Z,88
2023-02-11T11:40:58.280Z,89
2023-02-11T11:44:23.511Z,89
2023-02-11T11:47:48.741Z,89
2023-02-11T11:51:14.013Z,89
2023-02-11T11:54:39.285Z,89
2023-02-11T11:58:04.468Z,89
2023-02-11T12:01:29.717Z,90
2023-02-11T12:04:54.996Z,90
2023-02-11T12:08:20.219Z,89
2023-02-11T12:11:45.505Z,89
2023-02-11T12:15:10.644Z,90
2023-02-11T12:18:36.373Z,90
2023-02-11T12:22:01.619Z,89
2023-02-11T12:25:26.892Z,89
2023-02-11T12:28:52.147Z,89
2023-02-11T12:32:17.482Z,88
2023-02-11T12:35:42.631Z,88
2023-02-11T12:39:07.892Z,89
2023-02-11T12:42:33.138Z,89
2023-02-11T12:45:58.480Z,89
2023-02-11T12:49:23.706Z,89
2023-02-11T12:52:48.931Z,89
2023-02-11T12:56:14.171Z,89
2023-02-11T12:59:39.426Z,90
2023-02-11T13:03:04.658Z,90
2023-02-11T13:06:29.856Z,90
2023-02-11T13:09:55.113Z,90
2023-02-11T13:13:20.377Z,90
2023-02-11T13:16:45.654Z,90
2023-02-11T13:20:10.881Z,91
2023-02-11T13:23:36.030Z,91
2023-02-11T13:27:01.300Z,92
2023-02-11T13:30:26.708Z,92
2023-02-11T13:33:51.787Z,91
2023-02-11T13:37:17.017Z,91
2023-02-11T13:40:42.248Z,91
2023-02-11T13:44:07.441Z,91
2023-02-11T13:47:32.645Z,90
2023-02-11T13:50:57.846Z,90
2023-02-11T13:54:23.041Z,91
2023-02-11T13:57:48.208Z,91
2023-02-11T14:01:13.530Z,91
2023-02-11T14:04:38.640Z,90
2023-02-11T14:08:03.877Z,90
2023-02-11T14:11:29.167Z,91
2023-02-11T14:14:54.381Z,92
2023-02-11T14:18:19.575Z,92
2023-02-11T14:21:44.822Z,91
2023-02-11T14:25:10.023Z,92
2023-02-11T14:28:35.330Z,92
2023-02-11T15:05:43.624Z,94
2023-02-11T15:09:08.773Z,94
2023-02-11T15:12:33.998Z,94
2023-02-11T15:15:59.231Z,94
2023-02-11T15:19:25.779Z,95
2023-02-11T15:22:56.103Z,95
2023-02-11T15:26:21.323Z,95
2023-02-11T15:29:46.528Z,95
2023-02-11T15:33:11.716Z,95
2023-02-11T15:36:36.935Z,95
2023-02-11T15:40:02.204Z,95
2023-02-11T15:43:27.386Z,95
2023-02-11T15:46:52.633Z,95
2023-02-11T15:50:17.833Z,95
2023-02-11T15:53:43.063Z,96
2023-02-11T15:57:08.254Z,96
2023-02-11T16:00:33.417Z,96
2023-02-11T16:03:58.733Z,97
2023-02-11T16:07:23.874Z,97
2023-02-11T16:10:49.241Z,97
2023-02-11T16:14:14.297Z,97
2023-02-11T16:17:39.508Z,97
2023-02-11T16:21:04.718Z,97
2023-02-11T16:24:29.861Z,97
2023-02-11T16:27:55.066Z,97
2023-02-11T16:31:20.435Z,97
2023-02-11T16:34:45.462Z,97
2023-02-11T16:38:10.665Z,97
2023-02-11T16:41:35.857Z,96
2023-02-11T16:45:01.070Z,96
2023-02-11T16:48:26.358Z,97
2023-02-11T16:51:51.481Z,97
2023-02-11T16:55:16.703Z,97
2023-02-11T16:58:41.938Z,97
2023-02-11T17:02:07.149Z,97
2023-02-11T17:05:40.108Z,97
2023-02-11T17:08:57.599Z,97
2023-02-11T17:12:22.782Z,97
2023-02-11T17:15:47.989Z,96
2023-02-11T17:19:13.180Z,96
2023-02-11T17:22:38.393Z,96
2023-02-11T17:26:03.532Z,96
2023-02-11T17:29:28.738Z,97
2023-02-11T17:32:53.922Z,97
2023-02-11T17:36:19.250Z,96
2023-02-11T17:39:44.521Z,96
2023-02-11T17:43:09.697Z,96
2023-02-11T17:46:34.904Z,96
2023-02-11T17:50:00.166Z,96
2023-02-11T17:53:25.341Z,96
2023-02-11T17:56:50.835Z,96
2023-02-11T18:00:15.678Z,96
2023-02-11T18:03:40.958Z,96
2023-02-11T18:07:06.140Z,96
2023-02-11T18:10:31.359Z,96
2023-02-11T18:13:56.584Z,96
2023-02-11T18:17:21.747Z,96
2023-02-11T18:20:46.933Z,96
2023-02-11T18:24:12.157Z,96
2023-02-11T18:27:37.326Z,96
2023-02-11T18:31:02.579Z,96
2023-02-11T18:34:27.702Z,96
2023-02-11T18:37:52.905Z,96
2023-02-11T18:41:18.086Z,96
2023-02-11T18:44:43.292Z,96
2023-02-11T18:48:08.550Z,96
2023-02-11T18:51:33.748Z,96
2023-02-11T18:54:58.943Z,96
2023-02-11T18:58:24.135Z,95
2023-02-11T19:01:49.314Z,95
2023-02-11T19:05:14.538Z,95
2023-02-11T19:08:39.727Z,95
2023-02-11T19:12:04.884Z,95
2023-02-11T19:15:30.058Z,95
2023-02-11T19:18:55.275Z,96
2023-02-11T19:22:20.480Z,96
2023-02-11T19:25:45.650Z,95
2023-02-11T19:29:10.850Z,95
2023-02-11T19:32:36.022Z,94
2023-02-11T19:36:01.254Z,94
2023-02-11T19:39:26.441Z,94
2023-02-11T19:42:51.616Z,95
2023-02-11T19:46:16.850Z,95
2023-02-11T19:49:42.016Z,95
2023-02-11T19:53:07.272Z,95
2023-02-11T19:56:32.495Z,95
2023-02-11T19:59:57.699Z,96
2023-02-11T20:03:22.877Z,96
2023-02-11T20:06:48.078Z,95
2023-02-11T20:10:13.267Z,95
2023-02-11T20:13:38.497Z,95
2023-02-11T20:17:03.664Z,95
2023-02-11T20:20:28.856Z,96
2023-02-11T20:23:54.064Z,96
2023-02-11T20:27:20.170Z,96
2023-02-11T20:30:44.512Z,97
2023-02-11T20:34:09.667Z,97
2023-02-11T20:37:34.854Z,97
2023-02-11T20:41:00.024Z,97
2023-02-11T20:44:25.233Z,97
2023-02-11T20:47:50.418Z,97
2023-02-11T20:51:15.576Z,97
2023-02-11T20:54:40.750Z,98
2023-02-11T20:58:05.932Z,97
2023-02-11T21:01:31.145Z,97
2023-02-11T21:04:56.352Z,98
2023-02-11T21:08:21.502Z,98
2023-02-11T21:11:46.696Z,98
2023-02-11T21:15:11.857Z,98
2023-02-11T21:18:37.047Z,98
2023-02-11T21:22:02.265Z,98
2023-02-11T21:25:27.432Z,98
2023-02-11T21:28:52.606Z,98
2023-02-11T21:32:17.827Z,98
2023-02-11T21:35:43.001Z,98
2023-02-11T21:39:08.239Z,98
2023-02-11T21:42:33.394Z,98
2023-02-11T21:45:58.592Z,98
2023-02-11T21:49:23.754Z,97
2023-02-11T21:52:48.916Z,97
2023-02-11T21:56:14.131Z,97
2023-02-11T21:59:39.271Z,97
2023-02-11T22:03:04.439Z,97
2023-02-11T22:06:29.623Z,97
2023-02-11T22:09:54.804Z,97
2023-02-11T22:13:19.995Z,97
2023-02-11T22:16:45.189Z,97
2023-02-11T22:20:10.318Z,97
2023-02-11T22:23:35.528Z,97
2023-02-11T22:27:00.697Z,97
2023-02-11T22:30:25.933Z,97
2023-02-11T22:33:51.093Z,97
2023-02-11T22:37:16.285Z,97
2023-02-11T22:40:41.464Z,97
2023-02-11T22:44:06.659Z,97
2023-02-11T22:47:31.887Z,97
2023-02-11T22:50:57.047Z,97
2023-02-11T22:54:22.247Z,98
2023-02-11T22:57:47.428Z,98
2023-02-11T23:01:12.761Z,98
2023-02-11T23:04:37.821Z,98
2023-02-11T23:08:02.969Z,98
2023-02-11T23:11:28.209Z,98
2023-02-11T23:14:53.397Z,98
2023-02-11T23:18:18.582Z,97
2023-02-11T23:21:43.975Z,97
2023-02-11T23:25:09.112Z,98
2023-02-11T23:28:34.292Z,98
2023-02-11T23:31:59.626Z,98
2023-02-11T23:35:24.649Z,97
2023-02-11T23:38:49.829Z,97
2023-02-11T23:42:15.012Z,97
2023-02-11T23:45:40.227Z,97
2023-02-11T23:49:05.379Z,97
2023-02-11T23:52:30.598Z,97
2023-02-11T23:55:56.102Z,97
2023-02-11T23:59:20.927Z,97
